Time;durP1;ratioP1;P1;durP2;ratioP2;P2;SDS_P1;SDS_P2;PMS_P1;PMS_P2;Temp;Humidity;BMP_temperature;BMP_pressure;BME280_temperature;BME280_humidity;BME280_pressure;Samples;Min_cycle;Max_cycle;Signal;HPM_P1;HPM_P2
2021/12/06 00:02:08;;;;;;;1.30;1.20;;;;;;;;;;5087251;28;20262;-73
2021/12/06 00:04:37;;;;;;;3.03;1.73;;;;;;;;;;5086949;28;20206;-71
2021/12/06 00:07:06;;;;;;;2.40;1.97;;;;;;;;;;5087027;28;20211;-72
2021/12/06 00:09:33;;;;;;;1.83;1.73;;;;;;;;;;5084651;28;20202;-71
2021/12/06 00:12:02;;;;;;;1.87;1.77;;;;;;;;;;5087172;28;20209;-71
2021/12/06 00:14:30;;;;;;;1.33;1.33;;;;;;;;;;5086927;28;20204;-72
2021/12/06 00:16:58;;;;;;;2.33;1.80;;;;;;;;;;5077392;28;20242;-71
2021/12/06 00:19:25;;;;;;;1.53;1.43;;;;;;;;;;5087106;28;20569;-71
2021/12/06 00:21:52;;;;;;;1.83;1.73;;;;;;;;;;5086760;28;20225;-70
2021/12/06 00:24:20;;;;;;;3.93;1.50;;;;;;;;;;5086818;28;20210;-71
2021/12/06 00:26:47;;;;;;;2.53;1.27;;;;;;;;;;5087120;28;20210;-70
2021/12/06 00:29:15;;;;;;;1.70;1.60;;;;;;;;;;5086285;28;20238;-70
2021/12/06 00:31:43;;;;;;;2.10;1.60;;;;;;;;;;5086733;28;20723;-70
2021/12/06 00:34:14;;;;;;;1.63;1.53;;;;;;;;;;5086739;28;20226;-71
2021/12/06 00:36:51;;;;;;;1.73;1.70;;;;;;;;;;5086748;28;20328;-70
2021/12/06 00:39:18;;;;;;;1.43;1.33;;;;;;;;;;5086024;28;20291;-73
2021/12/06 00:41:45;;;;;;;1.50;1.50;;;;;;;;;;5086394;28;20207;-73
2021/12/06 00:44:12;;;;;;;2.60;2.40;;;;;;;;;;5085248;28;20218;-72
2021/12/06 00:46:40;;;;;;;1.97;1.67;;;;;;;;;;5080754;28;20290;-72
2021/12/06 00:49:07;;;;;;;4.30;1.87;;;;;;;;;;5084059;28;20590;-73
2021/12/06 00:51:34;;;;;;;2.37;1.43;;;;;;;;;;5084210;28;20207;-72
2021/12/06 00:54:02;;;;;;;1.53;1.50;;;;;;;;;;5084336;28;20203;-73
2021/12/06 00:56:29;;;;;;;2.03;1.50;;;;;;;;;;5079061;28;20226;-72
2021/12/06 00:58:56;;;;;;;2.10;1.90;;;;;;;;;;5080760;28;20759;-73
2021/12/06 01:01:23;;;;;;;1.80;1.47;;;;;;;;;;5080970;28;20630;-72
2021/12/06 01:03:52;;;;;;;2.30;1.30;;;;;;;;;;5083184;28;20649;-72
2021/12/06 01:06:19;;;;;;;2.43;1.77;;;;;;;;;;5084468;28;20206;-73
2021/12/06 01:08:46;;;;;;;2.67;1.67;;;;;;;;;;5084419;28;20695;-73
2021/12/06 01:11:13;;;;;;;1.60;1.50;;;;;;;;;;5084797;28;20257;-73
2021/12/06 01:13:40;;;;;;;1.80;1.70;;;;;;;;;;5084079;28;20211;-73
2021/12/06 01:16:08;;;;;;;5.60;1.83;;;;;;;;;;5083948;28;20248;-73
2021/12/06 01:18:35;;;;;;;1.60;1.50;;;;;;;;;;5082675;28;20207;-73
2021/12/06 01:21:13;;;;;;;1.63;1.60;;;;;;;;;;5082165;28;20283;-73
2021/12/06 01:23:51;;;;;;;1.67;1.57;;;;;;;;;;5085816;28;20210;-73
2021/12/06 01:26:36;;;;;;;1.00;1.00;;;;;;;;;;5085086;28;20240;-73
2021/12/06 01:29:26;;;;;;;1.20;1.20;;;;;;;;;;5083704;28;20705;-73
2021/12/06 01:31:59;;;;;;;1.67;1.57;;;;;;;;;;5084694;28;20202;-74
2021/12/06 01:39:57;;;;;;;2.73;1.50;;;;;;;;;;5081966;28;20211;-73
2021/12/06 01:42:25;;;;;;;1.27;1.03;;;;;;;;;;5082676;28;20202;-73
2021/12/06 01:44:53;;;;;;;2.57;1.33;;;;;;;;;;5083424;28;20206;-72
2021/12/06 01:47:22;;;;;;;1.40;1.40;;;;;;;;;;5082136;28;20221;-72
2021/12/06 01:49:50;;;;;;;1.80;1.70;;;;;;;;;;5082533;28;20284;-72
2021/12/06 01:52:20;;;;;;;1.97;1.80;;;;;;;;;;5083799;28;20201;-73
2021/12/06 01:54:47;;;;;;;1.00;1.00;;;;;;;;;;5086316;28;20224;-72
2021/12/06 01:57:15;;;;;;;1.60;1.30;;;;;;;;;;5084830;28;20225;-72
2021/12/06 01:59:42;;;;;;;3.00;1.63;;;;;;;;;;5083708;28;20220;-72
2021/12/06 02:02:09;;;;;;;1.90;1.50;;;;;;;;;;5081789;28;20207;-72
2021/12/06 02:04:37;;;;;;;2.77;1.53;;;;;;;;;;5083719;28;20198;-73
2021/12/06 02:07:06;;;;;;;2.43;1.73;;;;;;;;;;5082845;28;20199;-72
2021/12/06 02:09:34;;;;;;;4.97;2.03;;;;;;;;;;5084108;28;20206;-73
2021/12/06 02:12:03;;;;;;;1.33;1.23;;;;;;;;;;5087230;28;20207;-72
2021/12/06 02:14:39;;;;;;;2.63;2.03;;;;;;;;;;5084854;28;20298;-72
2021/12/06 02:17:12;;;;;;;2.67;1.50;;;;;;;;;;5082408;28;20288;-72
2021/12/06 02:19:42;;;;;;;1.87;1.53;;;;;;;;;;5085120;28;20212;-72
2021/12/06 02:22:11;;;;;;;2.97;1.80;;;;;;;;;;5084038;28;20698;-72
2021/12/06 02:24:38;;;;;;;1.87;1.67;;;;;;;;;;5082269;28;20202;-72
2021/12/06 02:27:06;;;;;;;1.73;1.63;;;;;;;;;;5092289;28;20197;-73
2021/12/06 02:29:33;;;;;;;1.80;1.70;;;;;;;;;;5092688;28;20781;-72
2021/12/06 02:32:05;;;;;;;2.60;1.70;;;;;;;;;;5092959;28;20202;-72
2021/12/06 02:34:32;;;;;;;1.80;1.70;;;;;;;;;;5092387;28;20317;-72
2021/12/06 02:36:59;;;;;;;1.87;1.50;;;;;;;;;;5092830;28;20222;-73
2021/12/06 02:39:29;;;;;;;1.80;1.73;;;;;;;;;;5092773;28;20206;-72
2021/12/06 02:41:57;;;;;;;5.13;2.30;;;;;;;;;;5091536;28;20224;-72
2021/12/06 02:44:24;;;;;;;1.53;1.43;;;;;;;;;;5091916;28;20930;-73
2021/12/06 02:46:51;;;;;;;1.90;1.80;;;;;;;;;;5092090;28;20251;-72
2021/12/06 02:49:18;;;;;;;1.60;1.50;;;;;;;;;;5092959;28;20205;-72
2021/12/06 02:51:45;;;;;;;3.10;2.20;;;;;;;;;;5091741;28;20218;-72
2021/12/06 02:54:13;;;;;;;1.53;1.43;;;;;;;;;;5091858;28;20206;-72
2021/12/06 02:56:53;;;;;;;2.13;2.03;;;;;;;;;;5083237;28;20234;-72
2021/12/06 02:59:21;;;;;;;2.77;2.03;;;;;;;;;;5088725;28;20212;-72
2021/12/06 03:01:50;;;;;;;1.67;1.57;;;;;;;;;;5092155;28;20551;-72
2021/12/06 03:04:17;;;;;;;1.93;1.83;;;;;;;;;;5092503;28;20209;-72
2021/12/06 03:06:47;;;;;;;1.93;1.83;;;;;;;;;;5091748;28;20198;-71
2021/12/06 03:09:15;;;;;;;1.60;1.50;;;;;;;;;;5092053;28;20209;-72
2021/12/06 03:11:44;;;;;;;1.30;1.30;;;;;;;;;;5091895;28;20212;-71
2021/12/06 03:14:12;;;;;;;2.00;1.90;;;;;;;;;;5091599;28;20208;-71
2021/12/06 03:16:40;;;;;;;1.23;1.23;;;;;;;;;;5090854;28;20283;-71
2021/12/06 03:19:07;;;;;;;2.37;1.50;;;;;;;;;;5088391;28;20214;-71
2021/12/06 03:21:34;;;;;;;1.20;1.20;;;;;;;;;;5091196;28;20686;-71
2021/12/06 03:24:02;;;;;;;1.50;1.40;;;;;;;;;;5087889;28;20208;-71
2021/12/06 03:26:30;;;;;;;2.00;1.90;;;;;;;;;;5089281;28;20253;-71
2021/12/06 03:28:59;;;;;;;1.57;1.47;;;;;;;;;;5091871;28;20245;-71
2021/12/06 03:31:26;;;;;;;2.07;1.73;;;;;;;;;;5092218;28;20937;-71
2021/12/06 03:33:55;;;;;;;2.27;2.07;;;;;;;;;;5091145;28;20232;-71
2021/12/06 03:36:23;;;;;;;3.17;2.07;;;;;;;;;;5086990;28;20241;-71
2021/12/06 03:38:51;;;;;;;2.27;2.10;;;;;;;;;;5090418;28;20201;-71
2021/12/06 03:41:19;;;;;;;2.37;2.27;;;;;;;;;;5090435;28;20213;-71
2021/12/06 03:43:47;;;;;;;1.93;1.33;;;;;;;;;;5091213;28;20694;-71
2021/12/06 03:46:17;;;;;;;1.80;1.70;;;;;;;;;;5091134;28;20224;-71
2021/12/06 03:48:44;;;;;;;3.63;1.83;;;;;;;;;;5091181;28;20209;-71
2021/12/06 03:51:11;;;;;;;2.83;2.00;;;;;;;;;;5091301;28;20961;-70
2021/12/06 03:53:38;;;;;;;1.93;1.73;;;;;;;;;;5091295;28;20201;-70
2021/12/06 03:56:05;;;;;;;3.10;1.90;;;;;;;;;;5091086;28;20209;-71
2021/12/06 03:58:33;;;;;;;4.63;2.10;;;;;;;;;;5090994;28;20228;-71
2021/12/06 04:01:02;;;;;;;1.57;1.47;;;;;;;;;;5089729;28;20333;-70
2021/12/06 04:03:32;;;;;;;1.97;1.77;;;;;;;;;;5090918;28;20216;-71
2021/12/06 04:05:59;;;;;;;2.47;2.27;;;;;;;;;;5090639;28;20226;-71
2021/12/06 04:08:26;;;;;;;1.43;1.43;;;;;;;;;;5090212;28;20205;-71
2021/12/06 04:10:55;;;;;;;1.40;1.30;;;;;;;;;;5090225;28;20619;-71
2021/12/06 04:13:22;;;;;;;1.37;1.27;;;;;;;;;;5089889;28;20554;-71
2021/12/06 04:15:49;;;;;;;4.33;1.73;;;;;;;;;;5090077;28;20208;-71
2021/12/06 04:18:16;;;;;;;1.33;1.23;;;;;;;;;;5088924;28;20231;-71
2021/12/06 04:20:45;;;;;;;1.57;1.47;;;;;;;;;;5089809;28;20204;-71
2021/12/06 04:23:13;;;;;;;2.03;1.50;;;;;;;;;;5090099;28;20207;-71
2021/12/06 04:25:40;;;;;;;1.40;1.40;;;;;;;;;;5089627;28;20212;-71
2021/12/06 04:28:08;;;;;;;1.60;1.50;;;;;;;;;;5087614;28;20201;-71
2021/12/06 04:30:35;;;;;;;3.07;2.13;;;;;;;;;;5086169;28;20669;-71
2021/12/06 04:33:02;;;;;;;1.40;1.30;;;;;;;;;;5089388;28;20229;-71
2021/12/06 04:35:30;;;;;;;1.67;1.57;;;;;;;;;;5088687;28;20213;-71
2021/12/06 04:37:59;;;;;;;1.80;1.70;;;;;;;;;;5089758;28;20225;-71
2021/12/06 04:40:27;;;;;;;1.83;1.20;;;;;;;;;;5089826;28;20254;-71
2021/12/06 04:42:54;;;;;;;1.60;1.50;;;;;;;;;;5090034;28;20200;-70
2021/12/06 04:45:21;;;;;;;2.63;2.00;;;;;;;;;;5089682;28;20232;-70
2021/12/06 04:47:50;;;;;;;2.20;2.00;;;;;;;;;;5087740;28;20392;-71
2021/12/06 04:50:18;;;;;;;1.53;1.43;;;;;;;;;;5084111;28;20264;-71
2021/12/06 04:52:45;;;;;;;1.47;1.37;;;;;;;;;;5089221;28;20210;-71
2021/12/06 04:55:16;;;;;;;2.83;1.53;;;;;;;;;;5089594;28;20209;-71
2021/12/06 04:57:46;;;;;;;1.30;0.83;;;;;;;;;;5089725;28;20232;-71
2021/12/06 05:00:15;;;;;;;1.73;1.63;;;;;;;;;;5089496;28;20553;-71
2021/12/06 05:02:42;;;;;;;2.23;1.57;;;;;;;;;;5088398;28;20659;-71
2021/12/06 05:05:12;;;;;;;1.90;1.80;;;;;;;;;;5088665;28;20205;-71
2021/12/06 05:07:42;;;;;;;1.67;1.57;;;;;;;;;;5089035;28;20224;-71
2021/12/06 05:10:10;;;;;;;2.13;1.93;;;;;;;;;;5088138;28;20213;-71
2021/12/06 05:12:38;;;;;;;3.73;2.70;;;;;;;;;;5088897;28;20211;-71
2021/12/06 05:15:06;;;;;;;2.13;1.93;;;;;;;;;;5088549;28;20257;-71
2021/12/06 05:17:33;;;;;;;6.60;2.40;;;;;;;;;;5085068;28;20278;-71
2021/12/06 05:20:01;;;;;;;1.40;1.27;;;;;;;;;;5088716;28;20667;-71
2021/12/06 05:22:29;;;;;;;1.53;1.43;;;;;;;;;;5088525;28;20210;-71
2021/12/06 05:24:56;;;;;;;1.77;1.67;;;;;;;;;;5088821;28;20215;-71
2021/12/06 05:27:28;;;;;;;1.40;1.30;;;;;;;;;;5088392;28;20204;-71
2021/12/06 05:29:59;;;;;;;1.73;1.63;;;;;;;;;;5088446;28;20241;-71
2021/12/06 05:32:30;;;;;;;2.70;1.63;;;;;;;;;;5087751;28;20208;-71
2021/12/06 05:35:03;;;;;;;2.33;2.10;;;;;;;;;;5084069;28;20209;-71
2021/12/06 05:37:31;;;;;;;3.53;1.93;;;;;;;;;;5088477;28;20254;-71
2021/12/06 05:39:58;;;;;;;2.07;1.83;;;;;;;;;;5088271;28;20229;-71
2021/12/06 05:42:26;;;;;;;1.77;1.67;;;;;;;;;;5084681;28;20352;-71
2021/12/06 05:44:53;;;;;;;1.60;1.50;;;;;;;;;;5087378;28;20246;-71
2021/12/06 05:47:21;;;;;;;3.17;1.47;;;;;;;;;;5088784;28;20231;-70
2021/12/06 05:49:49;;;;;;;3.57;2.50;;;;;;;;;;5088130;28;20252;-71
2021/12/06 05:52:16;;;;;;;2.00;1.53;;;;;;;;;;5088219;28;20214;-71
2021/12/06 05:54:43;;;;;;;1.97;1.73;;;;;;;;;;5084786;28;20213;-71
2021/12/06 05:57:11;;;;;;;2.30;2.17;;;;;;;;;;5075443;28;20235;-71
2021/12/06 05:59:38;;;;;;;1.87;1.77;;;;;;;;;;5088376;28;20209;-71
2021/12/06 06:02:06;;;;;;;1.73;1.40;;;;;;;;;;5083788;28;20208;-71
2021/12/06 06:04:36;;;;;;;1.77;1.67;;;;;;;;;;5089130;28;20214;-71
2021/12/06 06:07:03;;;;;;;1.60;1.50;;;;;;;;;;5087865;28;20310;-70
2021/12/06 06:09:30;;;;;;;1.63;1.53;;;;;;;;;;5088600;28;20686;-70
2021/12/06 06:11:57;;;;;;;2.87;2.07;;;;;;;;;;5079333;28;20201;-71
2021/12/06 06:14:24;;;;;;;1.53;1.43;;;;;;;;;;5072805;28;20263;-68
2021/12/06 06:16:53;;;;;;;3.03;1.67;;;;;;;;;;5088833;28;20220;-70
2021/12/06 06:19:22;;;;;;;3.43;2.03;;;;;;;;;;5071595;28;20738;-71
2021/12/06 06:21:50;;;;;;;1.80;1.70;;;;;;;;;;5084740;28;20252;-69
2021/12/06 06:24:17;;;;;;;1.57;1.50;;;;;;;;;;5078893;28;20212;-69
2021/12/06 06:26:44;;;;;;;1.93;1.67;;;;;;;;;;5080510;28;20215;-69
2021/12/06 06:29:12;;;;;;;2.20;1.97;;;;;;;;;;5079725;28;20232;-70
2021/12/06 06:31:40;;;;;;;2.37;1.83;;;;;;;;;;5079124;28;20226;-69
2021/12/06 06:34:07;;;;;;;3.37;1.90;;;;;;;;;;5081292;28;20228;-69
2021/12/06 06:36:34;;;;;;;5.40;1.80;;;;;;;;;;5080318;28;20206;-69
2021/12/06 06:39:03;;;;;;;2.17;2.07;;;;;;;;;;5080985;28;20226;-71
2021/12/06 06:41:31;;;;;;;3.67;2.23;;;;;;;;;;5073714;28;20264;-70
2021/12/06 06:43:58;;;;;;;2.03;1.87;;;;;;;;;;5071213;28;20584;-73
2021/12/06 06:46:25;;;;;;;2.50;2.30;;;;;;;;;;5078709;28;20265;-73
2021/12/06 06:48:52;;;;;;;2.87;2.67;;;;;;;;;;5088170;28;20235;-72
2021/12/06 06:51:20;;;;;;;3.17;2.00;;;;;;;;;;5088046;28;20240;-72
2021/12/06 06:53:47;;;;;;;1.67;1.57;;;;;;;;;;5089342;28;20213;-69
2021/12/06 06:56:15;;;;;;;2.40;2.20;;;;;;;;;;5089142;28;20198;-70
2021/12/06 06:58:42;;;;;;;2.97;1.73;;;;;;;;;;5091896;28;20225;-69
2021/12/06 07:01:09;;;;;;;3.03;2.17;;;;;;;;;;5090861;28;20266;-70
2021/12/06 07:03:36;;;;;;;3.37;2.90;;;;;;;;;;5088739;28;20204;-69
2021/12/06 07:06:04;;;;;;;2.40;2.20;;;;;;;;;;5073792;28;20202;-70
2021/12/06 07:08:31;;;;;;;4.97;2.43;;;;;;;;;;5090944;28;20214;-70
2021/12/06 07:11:00;;;;;;;2.30;1.93;;;;;;;;;;5091317;28;20633;-69
2021/12/06 07:13:30;;;;;;;3.83;2.30;;;;;;;;;;5091012;28;20218;-69
2021/12/06 07:15:57;;;;;;;1.97;1.70;;;;;;;;;;5091168;28;20216;-69
2021/12/06 07:18:24;;;;;;;2.40;2.20;;;;;;;;;;5090807;28;20257;-69
2021/12/06 07:20:51;;;;;;;1.53;1.40;;;;;;;;;;5091338;28;20636;-70
2021/12/06 07:23:18;;;;;;;3.90;2.57;;;;;;;;;;5091176;28;20306;-70
2021/12/06 07:25:47;;;;;;;2.07;1.83;;;;;;;;;;5070999;28;20218;-70
2021/12/06 07:28:14;;;;;;;2.80;1.97;;;;;;;;;;5070830;28;20213;-69
2021/12/06 07:30:42;;;;;;;2.50;2.20;;;;;;;;;;5090208;28;20217;-69
2021/12/06 07:33:09;;;;;;;3.47;2.20;;;;;;;;;;5083316;28;20235;-69
2021/12/06 07:35:37;;;;;;;2.00;1.90;;;;;;;;;;5082668;28;20581;-69
2021/12/06 07:38:07;;;;;;;2.73;2.10;;;;;;;;;;5071024;28;20234;-69
2021/12/06 07:40:34;;;;;;;1.40;1.30;;;;;;;;;;5084913;28;20722;-69
2021/12/06 07:43:01;;;;;;;1.70;1.60;;;;;;;;;;5090882;28;20214;-69
2021/12/06 07:45:28;;;;;;;2.83;2.00;;;;;;;;;;5078716;28;20641;-69
2021/12/06 07:47:57;;;;;;;2.53;1.90;;;;;;;;;;5075416;28;20216;-69
2021/12/06 07:50:24;;;;;;;4.10;2.60;;;;;;;;;;5081706;28;20203;-70
2021/12/06 07:52:52;;;;;;;2.97;2.67;;;;;;;;;;5086569;28;20276;-69
2021/12/06 07:55:20;;;;;;;3.03;2.77;;;;;;;;;;5077310;28;20219;-70
2021/12/06 07:57:47;;;;;;;3.57;2.33;;;;;;;;;;5088523;28;20236;-69
2021/12/06 08:00:16;;;;;;;3.37;2.77;;;;;;;;;;5082814;28;20215;-69
2021/12/06 08:02:43;;;;;;;3.10;2.60;;;;;;;;;;5088474;28;20224;-66
2021/12/06 08:05:32;;;;;;;2.57;2.37;;;;;;;;;;5090166;28;20208;-65
2021/12/06 08:08:00;;;;;;;3.20;2.83;;;;;;;;;;5078494;28;20300;-66
2021/12/06 08:10:27;;;;;;;3.20;2.83;;;;;;;;;;5082632;28;20205;-66
2021/12/06 08:12:55;;;;;;;3.10;2.80;;;;;;;;;;5084903;28;20213;-69
2021/12/06 08:15:22;;;;;;;3.43;2.33;;;;;;;;;;5069089;28;20216;-69
2021/12/06 08:17:49;;;;;;;2.83;2.60;;;;;;;;;;5077268;28;20670;-69
2021/12/06 08:20:17;;;;;;;2.97;2.73;;;;;;;;;;5089001;28;20705;-69
2021/12/06 08:22:44;;;;;;;4.67;2.30;;;;;;;;;;5082161;28;20206;-69
2021/12/06 08:25:12;;;;;;;4.57;2.30;;;;;;;;;;5083983;28;20269;-69
2021/12/06 08:27:40;;;;;;;2.00;1.90;;;;;;;;;;5089932;28;20236;-68
2021/12/06 08:30:07;;;;;;;4.00;2.70;;;;;;;;;;5087069;28;20236;-68
2021/12/06 08:32:34;;;;;;;5.60;3.27;;;;;;;;;;5081586;28;20255;-68
2021/12/06 08:35:01;;;;;;;3.70;2.57;;;;;;;;;;5089456;28;20224;-68
2021/12/06 08:37:30;;;;;;;4.23;3.23;;;;;;;;;;5089269;28;20209;-68
2021/12/06 08:39:57;;;;;;;2.83;2.63;;;;;;;;;;5089603;28;20228;-69
2021/12/06 08:42:24;;;;;;;5.67;2.87;;;;;;;;;;5087324;28;20218;-69
2021/12/06 08:44:51;;;;;;;6.37;3.67;;;;;;;;;;5071326;28;20632;-68
2021/12/06 08:47:18;;;;;;;9.23;3.20;;;;;;;;;;5084703;28;20236;-69
2021/12/06 08:49:46;;;;;;;4.60;3.67;;;;;;;;;;5083276;28;20682;-68
2021/12/06 08:52:14;;;;;;;7.33;4.43;;;;;;;;;;5089920;28;20217;-70
2021/12/06 08:54:42;;;;;;;3.47;2.70;;;;;;;;;;5087504;28;20582;-68
2021/12/06 08:57:10;;;;;;;5.63;3.50;;;;;;;;;;5068471;28;20213;-69
2021/12/06 08:59:37;;;;;;;3.73;3.37;;;;;;;;;;5080819;28;20237;-69
2021/12/06 09:02:05;;;;;;;4.80;3.53;;;;;;;;;;5089281;28;20236;-68
2021/12/06 09:04:37;;;;;;;7.33;4.13;;;;;;;;;;5087284;28;20217;-69
2021/12/06 09:07:10;;;;;;;4.10;3.37;;;;;;;;;;5081593;28;20209;-69
2021/12/06 09:09:37;;;;;;;3.43;2.90;;;;;;;;;;5080627;28;20203;-69
2021/12/06 09:12:06;;;;;;;3.73;3.30;;;;;;;;;;5088993;28;20383;-68
2021/12/06 09:14:33;;;;;;;6.00;3.70;;;;;;;;;;5080895;28;20207;-69
2021/12/06 09:17:00;;;;;;;5.80;4.00;;;;;;;;;;5080218;28;20213;-67
2021/12/06 09:19:27;;;;;;;5.53;3.27;;;;;;;;;;5089138;28;20222;-68
2021/12/06 09:21:54;;;;;;;8.10;4.60;;;;;;;;;;5085253;28;20213;-69
2021/12/06 09:24:21;;;;;;;7.17;4.33;;;;;;;;;;5071307;28;20222;-69
2021/12/06 09:26:49;;;;;;;8.53;4.63;;;;;;;;;;5073146;28;20207;-69
2021/12/06 09:29:18;;;;;;;5.97;3.93;;;;;;;;;;5089012;28;20230;-68
2021/12/06 09:31:45;;;;;;;8.33;5.30;;;;;;;;;;5087152;28;20263;-68
2021/12/06 09:34:13;;;;;;;6.13;4.07;;;;;;;;;;5088815;28;20300;-67
2021/12/06 09:36:40;;;;;;;5.47;4.20;;;;;;;;;;5089010;28;20217;-68
2021/12/06 09:39:08;;;;;;;5.83;3.93;;;;;;;;;;5088687;28;20237;-68
2021/12/06 09:41:35;;;;;;;8.70;5.07;;;;;;;;;;5076085;28;20212;-67
2021/12/06 09:44:03;;;;;;;6.00;4.50;;;;;;;;;;5068517;28;20215;-68
2021/12/06 09:46:35;;;;;;;5.20;4.10;;;;;;;;;;5068586;28;20218;-69
2021/12/06 09:49:03;;;;;;;5.90;4.47;;;;;;;;;;5068388;28;20211;-68
2021/12/06 09:51:30;;;;;;;5.00;4.03;;;;;;;;;;5079408;28;20304;-68
2021/12/06 09:53:58;;;;;;;6.60;4.27;;;;;;;;;;5088488;28;20720;-68
2021/12/06 09:56:33;;;;;;;5.67;4.73;;;;;;;;;;5088421;28;20209;-68
2021/12/06 09:59:00;;;;;;;7.23;3.93;;;;;;;;;;5088561;28;20608;-69
2021/12/06 10:01:29;;;;;;;2.70;2.50;;;;;;;;;;5088119;28;20215;-65
2021/12/06 10:03:58;;;;;;;5.40;3.97;;;;;;;;;;5086597;28;20210;-65
2021/12/06 10:06:26;;;;;;;6.87;4.30;;;;;;;;;;5088380;28;20206;-66
2021/12/06 10:08:54;;;;;;;5.90;4.17;;;;;;;;;;5088422;28;20229;-67
2021/12/06 10:11:23;;;;;;;2.80;2.50;;;;;;;;;;5088122;28;20367;-65
2021/12/06 10:13:50;;;;;;;5.40;4.17;;;;;;;;;;5085900;28;20210;-68
2021/12/06 10:16:18;;;;;;;9.57;4.53;;;;;;;;;;5087739;28;20603;-68
2021/12/06 10:18:45;;;;;;;5.90;4.20;;;;;;;;;;5088195;28;20226;-68
2021/12/06 10:21:14;;;;;;;6.57;4.63;;;;;;;;;;5087529;28;20210;-68
2021/12/06 10:23:42;;;;;;;7.60;4.33;;;;;;;;;;5086369;28;20203;-67
2021/12/06 10:26:10;;;;;;;5.37;4.70;;;;;;;;;;5085353;28;20293;-68
2021/12/06 10:28:40;;;;;;;6.57;4.97;;;;;;;;;;5088507;28;20234;-66
2021/12/06 10:31:09;;;;;;;8.97;5.43;;;;;;;;;;5092203;28;20251;-66
2021/12/06 10:33:37;;;;;;;6.93;4.90;;;;;;;;;;5091965;28;20226;-67
2021/12/06 10:36:06;;;;;;;12.20;5.07;;;;;;;;;;5088897;28;20219;-73
2021/12/06 10:38:36;;;;;;;9.23;5.13;;;;;;;;;;5091873;28;20645;-66
2021/12/06 10:41:05;;;;;;;11.10;4.27;;;;;;;;;;5092034;28;20198;-68
2021/12/06 10:43:33;;;;;;;6.10;4.83;;;;;;;;;;5091591;28;20432;-67
2021/12/06 10:46:00;;;;;;;6.50;4.63;;;;;;;;;;5091443;28;20667;-69
2021/12/06 10:48:28;;;;;;;5.97;4.60;;;;;;;;;;5088755;28;20263;-68
2021/12/06 10:50:59;;;;;;;7.93;5.73;;;;;;;;;;5091686;28;20880;-68
2021/12/06 10:53:27;;;;;;;9.07;5.77;;;;;;;;;;5091178;28;20245;-68
2021/12/06 10:55:57;;;;;;;8.10;4.80;;;;;;;;;;5079496;28;20231;-68
2021/12/06 10:58:26;;;;;;;7.63;5.33;;;;;;;;;;5083661;28;20621;-69
2021/12/06 11:00:54;;;;;;;6.27;4.70;;;;;;;;;;5089377;28;20233;-68
2021/12/06 11:03:25;;;;;;;6.83;4.67;;;;;;;;;;5091153;28;20214;-68
2021/12/06 11:05:54;;;;;;;6.40;4.83;;;;;;;;;;5090991;28;20737;-68
2021/12/06 11:08:22;;;;;;;7.03;5.03;;;;;;;;;;5091281;28;20620;-69
2021/12/06 11:10:50;;;;;;;5.93;4.37;;;;;;;;;;5088761;28;20202;-68
2021/12/06 11:13:22;;;;;;;4.90;4.07;;;;;;;;;;5089666;28;20206;-68
2021/12/06 11:15:54;;;;;;;5.10;3.57;;;;;;;;;;5090592;28;20275;-68
2021/12/06 11:18:30;;;;;;;5.63;4.50;;;;;;;;;;5091793;28;20224;-68
2021/12/06 11:20:57;;;;;;;5.97;4.07;;;;;;;;;;5085657;28;20201;-68
2021/12/06 11:23:24;;;;;;;6.87;4.60;;;;;;;;;;5091821;28;20660;-68
2021/12/06 11:25:55;;;;;;;5.27;4.30;;;;;;;;;;5090899;28;20210;-69
2021/12/06 11:28:28;;;;;;;5.97;4.90;;;;;;;;;;5090670;28;20809;-69
2021/12/06 11:30:59;;;;;;;4.90;4.37;;;;;;;;;;5089280;28;20202;-70
2021/12/06 11:33:30;;;;;;;4.20;3.80;;;;;;;;;;5091669;28;20227;-70
2021/12/06 11:35:58;;;;;;;5.57;4.17;;;;;;;;;;5091459;28;20213;-69
2021/12/06 11:38:25;;;;;;;6.57;4.37;;;;;;;;;;5091010;28;20680;-68
2021/12/06 11:40:56;;;;;;;5.10;4.40;;;;;;;;;;5088371;28;20222;-68
2021/12/06 11:43:23;;;;;;;5.20;4.43;;;;;;;;;;5080663;28;20217;-76
2021/12/06 11:45:52;;;;;;;6.13;4.60;;;;;;;;;;5091452;28;20214;-73
2021/12/06 11:48:21;;;;;;;5.80;4.30;;;;;;;;;;5091462;28;20212;-71
2021/12/06 11:50:49;;;;;;;5.63;4.33;;;;;;;;;;5091383;28;20252;-72
2021/12/06 11:53:17;;;;;;;5.77;4.77;;;;;;;;;;5090920;28;20217;-72
2021/12/06 11:55:46;;;;;;;6.83;4.53;;;;;;;;;;5089125;28;20214;-71
2021/12/06 11:58:21;;;;;;;7.83;4.77;;;;;;;;;;5090709;28;20210;-73
2021/12/06 12:01:02;;;;;;;7.60;4.90;;;;;;;;;;5087422;28;20222;-73
2021/12/06 12:03:31;;;;;;;5.63;4.57;;;;;;;;;;5085927;28;21002;-67
2021/12/06 12:05:58;;;;;;;6.67;4.53;;;;;;;;;;5079934;28;20203;-72
2021/12/06 12:08:26;;;;;;;6.43;4.20;;;;;;;;;;5070382;28;20218;-73
2021/12/06 12:10:54;;;;;;;5.87;4.37;;;;;;;;;;5089318;28;20206;-73
2021/12/06 12:13:25;;;;;;;6.53;4.23;;;;;;;;;;5090276;28;20582;-72
2021/12/06 12:15:55;;;;;;;6.50;4.73;;;;;;;;;;5090196;28;20210;-71
2021/12/06 12:18:22;;;;;;;4.10;3.47;;;;;;;;;;5090271;28;20279;-71
2021/12/06 12:20:49;;;;;;;9.47;4.47;;;;;;;;;;5088853;28;20230;-71
2021/12/06 12:23:17;;;;;;;8.43;4.03;;;;;;;;;;5087463;28;20206;-71
2021/12/06 12:25:49;;;;;;;6.63;4.67;;;;;;;;;;5089399;28;20683;-71
2021/12/06 12:28:21;;;;;;;6.63;4.73;;;;;;;;;;5074331;28;20243;-71
2021/12/06 12:30:50;;;;;;;7.10;3.90;;;;;;;;;;5067899;28;20281;-73
2021/12/06 12:33:19;;;;;;;5.77;4.13;;;;;;;;;;5083240;28;20230;-73
2021/12/06 12:35:48;;;;;;;6.63;4.67;;;;;;;;;;5085067;28;20819;-72
2021/12/06 12:38:18;;;;;;;9.07;5.83;;;;;;;;;;5086441;28;20207;-73
2021/12/06 12:40:48;;;;;;;8.07;5.37;;;;;;;;;;5088190;28;20252;-73
2021/12/06 12:43:16;;;;;;;8.43;5.47;;;;;;;;;;5088507;28;20210;-73
2021/12/06 12:45:44;;;;;;;10.13;6.03;;;;;;;;;;5087148;28;20210;-73
2021/12/06 12:48:12;;;;;;;7.03;5.27;;;;;;;;;;5074392;28;20207;-73
2021/12/06 12:50:40;;;;;;;8.90;6.00;;;;;;;;;;5067672;28;20708;-73
2021/12/06 12:53:09;;;;;;;6.93;4.43;;;;;;;;;;5066776;28;20211;-71
2021/12/06 12:55:37;;;;;;;8.67;5.03;;;;;;;;;;5080954;28;20206;-71
2021/12/06 12:58:09;;;;;;;10.87;6.13;;;;;;;;;;5080971;28;20221;-71
2021/12/06 13:00:45;;;;;;;9.27;4.67;;;;;;;;;;5087710;28;20232;-71
2021/12/06 13:03:27;;;;;;;9.83;5.63;;;;;;;;;;5088707;28;20782;-71
2021/12/06 13:06:12;;;;;;;7.33;4.97;;;;;;;;;;5077457;28;20233;-72
2021/12/06 13:08:39;;;;;;;9.67;6.27;;;;;;;;;;5083447;28;20268;-70
2021/12/06 13:11:06;;;;;;;9.00;5.73;;;;;;;;;;5070475;28;20215;-72
2021/12/06 13:13:40;;;;;;;8.13;5.07;;;;;;;;;;5088434;28;20206;-72
2021/12/06 13:16:11;;;;;;;9.17;5.77;;;;;;;;;;5088291;28;20249;-70
2021/12/06 13:19:01;;;;;;;8.97;5.57;;;;;;;;;;5087661;28;20298;-71
2021/12/06 13:21:32;;;;;;;8.07;5.10;;;;;;;;;;5088431;28;20233;-72
2021/12/06 13:24:06;;;;;;;11.27;5.63;;;;;;;;;;5082989;28;20207;-70
2021/12/06 13:26:35;;;;;;;7.27;4.83;;;;;;;;;;5072876;28;20924;-71
2021/12/06 13:29:04;;;;;;;5.30;3.63;;;;;;;;;;5087854;28;20350;-71
2021/12/06 13:31:31;;;;;;;8.00;5.17;;;;;;;;;;5088104;28;20694;-72
2021/12/06 13:33:58;;;;;;;6.93;4.63;;;;;;;;;;5087639;28;20498;-70
2021/12/06 13:36:40;;;;;;;8.70;5.27;;;;;;;;;;5088930;28;20214;-71
2021/12/06 13:39:28;;;;;;;7.60;4.90;;;;;;;;;;5084513;28;20272;-73
2021/12/06 13:41:55;;;;;;;6.53;4.43;;;;;;;;;;5088329;28;20202;-70
2021/12/06 13:44:23;;;;;;;5.67;4.87;;;;;;;;;;5072793;28;20210;-70
2021/12/06 13:46:53;;;;;;;9.13;4.03;;;;;;;;;;5085904;28;20206;-69
2021/12/06 13:49:21;;;;;;;7.73;5.03;;;;;;;;;;5068226;28;20298;-69
2021/12/06 13:51:54;;;;;;;6.23;3.80;;;;;;;;;;5083447;28;20206;-72
2021/12/06 13:54:27;;;;;;;7.03;4.67;;;;;;;;;;5069534;28;20218;-74
2021/12/06 13:56:58;;;;;;;13.47;4.87;;;;;;;;;;5079225;28;20217;-72
2021/12/06 13:59:27;;;;;;;6.70;4.87;;;;;;;;;;5082890;28;20236;-75
2021/12/06 14:01:56;;;;;;;9.33;5.47;;;;;;;;;;5085622;28;20205;-73
2021/12/06 14:04:24;;;;;;;6.47;4.40;;;;;;;;;;5092584;28;20215;-72
2021/12/06 14:06:53;;;;;;;5.90;4.53;;;;;;;;;;5084304;28;20303;-72
2021/12/06 14:09:26;;;;;;;6.23;4.30;;;;;;;;;;5085615;28;20213;-73
2021/12/06 14:11:55;;;;;;;8.83;4.97;;;;;;;;;;5091226;28;20561;-71
2021/12/06 14:14:23;;;;;;;8.77;4.40;;;;;;;;;;5092750;28;20203;-70
2021/12/06 14:16:51;;;;;;;8.50;5.07;;;;;;;;;;5091990;28;20213;-68
2021/12/06 14:19:28;;;;;;;5.30;4.43;;;;;;;;;;5091427;28;20961;-73
2021/12/06 14:21:56;;;;;;;6.87;4.73;;;;;;;;;;5085556;28;20297;-67
2021/12/06 14:24:24;;;;;;;9.13;5.20;;;;;;;;;;5091983;28;20202;-72
2021/12/06 14:26:51;;;;;;;25.23;12.13;;;;;;;;;;5090217;28;20210;-70
2021/12/06 14:29:21;;;;;;;15.53;8.83;;;;;;;;;;5084731;28;20234;-68
2021/12/06 14:31:50;;;;;;;11.57;6.80;;;;;;;;;;5081377;28;20203;-70
2021/12/06 14:34:17;;;;;;;10.43;5.43;;;;;;;;;;5082609;28;20229;-72
2021/12/06 14:36:45;;;;;;;9.67;6.23;;;;;;;;;;5081114;28;20237;-70
2021/12/06 14:39:13;;;;;;;11.90;5.60;;;;;;;;;;5087052;28;20214;-72
2021/12/06 14:41:53;;;;;;;11.50;5.93;;;;;;;;;;5074908;28;20746;-74
2021/12/06 14:44:32;;;;;;;8.00;5.13;;;;;;;;;;5086510;28;20901;-72
2021/12/06 14:46:59;;;;;;;9.87;5.57;;;;;;;;;;5080672;28;20210;-73
2021/12/06 14:49:26;;;;;;;11.83;5.90;;;;;;;;;;5070304;28;20296;-72
2021/12/06 14:51:54;;;;;;;12.27;6.60;;;;;;;;;;5080304;28;20210;-72
2021/12/06 14:54:25;;;;;;;13.87;6.10;;;;;;;;;;5082331;28;20589;-72
2021/12/06 14:56:56;;;;;;;11.40;5.63;;;;;;;;;;5087427;28;20255;-72
2021/12/06 14:59:26;;;;;;;13.00;7.30;;;;;;;;;;5088055;28;20309;-73